createdAt,value
2022-09-28T00:03:27.678Z,957.87
2022-09-28T00:10:58.317Z,957.88
2022-09-28T00:18:50.552Z,957.85
2022-09-28T00:26:29.801Z,957.85
2022-09-28T00:34:11.368Z,957.85
2022-09-28T00:41:55.027Z,957.77
2022-09-28T00:49:57.589Z,957.58
2022-09-28T00:58:06.030Z,957.64
2022-09-28T01:05:58.572Z,957.61
2022-09-28T01:13:43.951Z,957.54
2022-09-28T01:22:04.951Z,957.49
2022-09-28T01:30:10.460Z,957.54
2022-09-28T01:38:37.229Z,957.47
2022-09-28T01:46:42.359Z,957.44
2022-09-28T01:54:56.046Z,957.44
2022-09-28T02:03:18.150Z,957.31
2022-09-28T02:11:40.191Z,957.2
2022-09-28T02:19:53.980Z,957.19
2022-09-28T02:28:12.220Z,957.28
2022-09-28T02:35:57.460Z,957.23
2022-09-28T02:43:45.818Z,957.26
2022-09-28T02:52:01.210Z,957.27
2022-09-28T03:00:19.074Z,957.28
2022-09-28T03:08:22.548Z,957.27
2022-09-28T03:16:30.166Z,957.24
2022-09-28T03:24:15.706Z,957.28
2022-09-28T03:32:04.661Z,957.29
2022-09-28T03:39:51.838Z,957.33
2022-09-28T03:47:35.056Z,957.32
2022-09-28T03:55:31.954Z,957.19
2022-09-28T04:03:17.595Z,957.23
2022-09-28T04:11:00.049Z,957.31
2022-09-28T04:18:36.487Z,957.33
2022-09-28T04:26:21.349Z,957.23
2022-09-28T04:34:09.237Z,957.33
2022-09-28T04:41:43.913Z,957.37
2022-09-28T04:49:20.897Z,957.57
2022-09-28T04:57:03.988Z,957.64
2022-09-28T05:04:53.649Z,957.71
2022-09-28T05:12:36.532Z,957.78
2022-09-28T05:20:27.900Z,957.85
2022-09-28T05:28:09.135Z,957.83
2022-09-28T05:35:47.129Z,957.89
2022-09-28T05:43:29.769Z,957.93
2022-09-28T05:51:06.787Z,957.95
2022-09-28T05:58:43.999Z,957.88
2022-09-28T06:06:25.363Z,957.87
2022-09-28T06:14:02.594Z,957.98
2022-09-28T06:22:00.610Z,957.95
2022-09-28T06:29:58.025Z,957.96
2022-09-28T06:37:41.730Z,958.05
2022-09-28T06:45:32.031Z,958.04
2022-09-28T06:53:14.461Z,958.13
2022-09-28T07:00:48.111Z,958.24
2022-09-28T07:09:03.465Z,958.34
2022-09-28T07:17:10.552Z,958.5
2022-09-28T07:24:41.161Z,958.64
2022-09-28T07:32:15.185Z,958.68
2022-09-28T07:40:04.047Z,958.8
2022-09-28T07:47:44.172Z,958.82
2022-09-28T07:55:25.770Z,958.9
2022-09-28T08:03:17.654Z,958.97
2022-09-28T08:11:02.525Z,959.15
2022-09-28T08:18:47.890Z,959.29
2022-09-28T08:26:25.789Z,959.35
2022-09-28T08:34:17.911Z,959.33
2022-09-28T08:42:06.620Z,959.42
2022-09-28T08:50:29.822Z,959.43
2022-09-28T08:58:34.551Z,959.51
2022-09-28T09:06:40.302Z,959.51
2022-09-28T09:14:51.293Z,959.63
2022-09-28T09:23:21.399Z,959.67
2022-09-28T09:31:41.419Z,959.69
2022-09-28T09:39:38.763Z,959.67
2022-09-28T09:48:00.460Z,959.73
2022-09-28T09:56:31.802Z,959.7
2022-09-28T10:04:41.778Z,959.71
2022-09-28T10:12:58.227Z,959.73
2022-09-28T10:20:49.511Z,959.82
2022-09-28T10:28:56.371Z,959.9
2022-09-28T10:36:54.582Z,959.89
2022-09-28T10:44:58.745Z,959.92
2022-09-28T10:52:57.869Z,959.92
2022-09-28T11:01:06.084Z,959.99
2022-09-28T11:09:13.291Z,960
2022-09-28T11:17:25.486Z,960.1
2022-09-28T11:25:26.364Z,960.09
2022-09-28T11:33:06.950Z,959.99
2022-09-28T11:41:13.028Z,959.97
2022-09-28T11:49:25.598Z,959.84
2022-09-28T11:57:21.507Z,959.9
2022-09-28T12:05:21.720Z,959.89
2022-09-28T12:13:29.430Z,959.94
2022-09-28T12:21:35.303Z,959.85
2022-09-28T12:29:34.959Z,959.87
2022-09-28T12:37:18.734Z,959.83
2022-09-28T12:45:00.732Z,959.79
2022-09-28T12:53:07.318Z,959.79
2022-09-28T13:00:45.136Z,959.76
2022-09-28T13:08:29.780Z,959.77
2022-09-28T13:15:50.896Z,959.79
2022-09-28T13:23:27.701Z,959.76
2022-09-28T13:31:00.261Z,959.71
2022-09-28T13:38:21.306Z,959.69
2022-09-28T13:45:49.457Z,959.76
2022-09-28T13:53:43.347Z,959.76
2022-09-28T14:01:36.410Z,959.71
2022-09-28T14:09:31.843Z,959.8
2022-09-28T14:17:03.703Z,959.83
2022-09-28T14:24:58.004Z,959.88
2022-09-28T14:32:51.347Z,959.86
2022-09-28T14:40:26.856Z,959.84
2022-09-28T14:48:08.449Z,959.81
2022-09-28T14:55:59.366Z,959.87
2022-09-28T15:03:45.481Z,959.89
2022-09-28T15:11:38.731Z,959.9
2022-09-28T15:19:26.870Z,959.9
2022-09-28T15:27:09.233Z,959.89
2022-09-28T15:34:55.763Z,959.94
2022-09-28T15:42:25.614Z,959.92
2022-09-28T15:49:59.683Z,959.95
2022-09-28T15:57:39.092Z,960
2022-09-28T16:05:11.378Z,960.08
2022-09-28T16:12:32.153Z,960.08
2022-09-28T16:20:15.807Z,960.13
2022-09-28T16:28:02.551Z,960.15
2022-09-28T16:35:23.075Z,960.17
2022-09-28T16:42:51.713Z,960.26
2022-09-28T16:50:09.485Z,960.35
2022-09-28T16:57:52.541Z,960.39
2022-09-28T17:05:19.718Z,960.48
2022-09-28T17:12:38.995Z,960.54
2022-09-28T17:19:58.161Z,960.62
2022-09-28T17:27:07.463Z,960.64
2022-09-28T17:34:25.566Z,960.68
2022-09-28T17:41:48.615Z,960.72
2022-09-28T17:48:58.284Z,960.74
2022-09-28T17:56:07.428Z,960.82
2022-09-28T18:03:21.046Z,960.81
2022-09-28T18:10:50.464Z,960.87
2022-09-28T18:18:05.261Z,960.91
2022-09-28T18:25:23.863Z,960.94
2022-09-28T18:32:47.889Z,961.02
2022-09-28T18:40:19.999Z,961.09
2022-09-28T18:47:34.495Z,961.16
2022-09-28T18:54:57.334Z,961.25
2022-09-28T19:02:27.602Z,961.3
2022-09-28T19:09:53.550Z,961.34
2022-09-28T19:17:09.375Z,961.37
2022-09-28T19:24:28.276Z,961.42
2022-09-28T19:31:43.496Z,961.41
2022-09-28T19:39:17.473Z,961.46
2022-09-28T19:46:32.554Z,961.48
2022-09-28T19:54:09.808Z,961.49
2022-09-28T20:01:38.209Z,961.54
2022-09-28T20:09:00.041Z,961.57
2022-09-28T20:16:33.563Z,961.59
2022-09-28T20:24:09.132Z,961.65
2022-09-28T20:31:36.444Z,961.67
2022-09-28T20:39:09.567Z,961.61
2022-09-28T20:46:40.444Z,961.65
2022-09-28T20:54:16.296Z,961.68
2022-09-28T21:01:41.419Z,961.71
2022-09-28T21:09:22.744Z,961.69
2022-09-28T21:16:59.884Z,961.7
2022-09-28T21:24:44.985Z,961.65
2022-09-28T21:32:12.556Z,961.65
2022-09-28T21:39:52.894Z,961.67
2022-09-28T21:47:18.251Z,961.68
2022-09-28T21:54:52.333Z,961.63
2022-09-28T22:02:27.254Z,961.67
2022-09-28T22:09:43.140Z,961.73
2022-09-28T22:16:59.899Z,961.71
2022-09-28T22:24:21.187Z,961.77
2022-09-28T22:31:55.947Z,961.82
2022-09-28T22:39:39.651Z,961.84
2022-09-28T22:47:13.556Z,961.82
2022-09-28T22:54:36.804Z,961.84
2022-09-28T23:02:14.140Z,961.77
2022-09-28T23:09:48.247Z,961.77
2022-09-28T23:17:02.914Z,961.72
2022-09-28T23:24:21.824Z,961.77
2022-09-28T23:31:53.850Z,961.77
2022-09-28T23:39:16.431Z,961.78
2022-09-28T23:46:34.778Z,961.74
2022-09-28T23:54:14.874Z,961.75
